sensor_id;sensor_type;location;lat;lon;timestamp;temperature;humidity
28071;DHT22;15383;48.408;9.968;2022-12-18T11:09:30;14.50;75.80
28071;DHT22;15383;48.408;9.968;2022-12-18T11:27:01;14.70;76.40
28071;DHT22;15383;48.408;9.968;2022-12-18T11:29:38;14.80;76.40
28071;DHT22;15383;48.408;9.968;2022-12-18T11:32:42;14.80;76.70
28071;DHT22;15383;48.408;9.968;2022-12-18T11:35:11;14.70;76.50
28071;DHT22;15383;48.408;9.968;2022-12-18T11:37:41;14.80;76.70
28071;DHT22;15383;48.408;9.968;2022-12-18T11:40:22;14.70;76.70
28071;DHT22;15383;48.408;9.968;2022-12-18T11:43:15;14.70;76.80
28071;DHT22;15383;48.408;9.968;2022-12-18T11:45:55;14.70;76.90
28071;DHT22;15383;48.408;9.968;2022-12-18T11:48:37;14.70;76.80
28071;DHT22;15383;48.408;9.968;2022-12-18T11:51:08;14.80;76.90
28071;DHT22;15383;48.408;9.968;2022-12-18T11:53:34;14.70;76.80
28071;DHT22;15383;48.408;9.968;2022-12-18T12:01:50;14.80;77.00
28071;DHT22;15383;48.408;9.968;2022-12-18T12:15:01;14.80;77.30
28071;DHT22;15383;48.408;9.968;2022-12-18T12:17:51;14.80;77.40
28071;DHT22;15383;48.408;9.968;2022-12-18T12:20:45;14.80;77.40
28071;DHT22;15383;48.408;9.968;2022-12-18T12:23:35;14.80;77.40
28071;DHT22;15383;48.408;9.968;2022-12-18T12:26:12;14.80;77.40
28071;DHT22;15383;48.408;9.968;2022-12-18T12:37:31;14.90;77.70
28071;DHT22;15383;48.408;9.968;2022-12-18T12:40:01;14.90;77.60
28071;DHT22;15383;48.408;9.968;2022-12-18T12:42:44;14.90;77.70
28071;DHT22;15383;48.408;9.968;2022-12-18T12:51:01;14.80;77.80
28071;DHT22;15383;48.408;9.968;2022-12-18T12:53:34;14.80;78.00
28071;DHT22;15383;48.408;9.968;2022-12-18T12:56:02;14.80;78.00
28071;DHT22;15383;48.408;9.968;2022-12-18T12:58:45;14.80;78.10
28071;DHT22;15383;48.408;9.968;2022-12-18T13:01:25;14.80;78.10
28071;DHT22;15383;48.408;9.968;2022-12-18T13:04:18;14.80;78.10
28071;DHT22;15383;48.408;9.968;2022-12-18T13:06:59;14.80;78.00
28071;DHT22;15383;48.408;9.968;2022-12-18T13:09:31;14.80;78.10
28071;DHT22;15383;48.408;9.968;2022-12-18T13:12:04;14.90;78.20
28071;DHT22;15383;48.408;9.968;2022-12-18T13:14:49;14.80;78.20
28071;DHT22;15383;48.408;9.968;2022-12-18T13:19:51;14.80;78.10
28071;DHT22;15383;48.408;9.968;2022-12-18T13:22:22;14.80;78.20
28071;DHT22;15383;48.408;9.968;2022-12-18T13:24:48;14.80;78.30
28071;DHT22;15383;48.408;9.968;2022-12-18T13:41:01;14.80;78.20
28071;DHT22;15383;48.408;9.968;2022-12-18T13:43:31;14.80;78.20
28071;DHT22;15383;48.408;9.968;2022-12-18T13:46:02;13.60;70.50
28071;DHT22;15383;48.408;9.968;2022-12-18T13:48:29;13.80;70.90
28071;DHT22;15383;48.408;9.968;2022-12-18T13:53:34;14.30;70.40
28071;DHT22;15383;48.408;9.968;2022-12-18T13:56:02;14.50;71.00
28071;DHT22;15383;48.408;9.968;2022-12-18T13:58:28;14.60;71.50
28071;DHT22;15383;48.408;9.968;2022-12-18T14:00:53;14.60;72.00
28071;DHT22;15383;48.408;9.968;2022-12-18T14:03:24;14.70;72.60
28071;DHT22;15383;48.408;9.968;2022-12-18T14:05:56;14.60;73.80
28071;DHT22;15383;48.408;9.968;2022-12-18T14:08:25;14.60;73.50
28071;DHT22;15383;48.408;9.968;2022-12-18T14:10:52;14.70;73.90
28071;DHT22;15383;48.408;9.968;2022-12-18T14:13:29;14.70;74.10
28071;DHT22;15383;48.408;9.968;2022-12-18T14:15:55;14.70;74.60
28071;DHT22;15383;48.408;9.968;2022-12-18T14:18:30;14.70;74.90
28071;DHT22;15383;48.408;9.968;2022-12-18T14:20:59;14.70;75.60
28071;DHT22;15383;48.408;9.968;2022-12-18T14:23:38;14.80;76.00
28071;DHT22;15383;48.408;9.968;2022-12-18T14:26:24;14.70;75.70
28071;DHT22;15383;48.408;9.968;2022-12-18T14:28:52;14.70;76.00
28071;DHT22;15383;48.408;9.968;2022-12-18T14:31:24;14.70;76.20
28071;DHT22;15383;48.408;9.968;2022-12-18T14:33:51;14.70;76.50
28071;DHT22;15383;48.408;9.968;2022-12-18T14:36:25;14.70;76.70
28071;DHT22;15383;48.408;9.968;2022-12-18T14:38:53;14.60;76.80
28071;DHT22;15383;48.408;9.968;2022-12-18T14:41:20;14.60;77.00
28071;DHT22;15383;48.408;9.968;2022-12-18T14:43:48;14.60;77.20
28071;DHT22;15383;48.408;9.968;2022-12-18T14:46:35;14.60;77.10
28071;DHT22;15383;48.408;9.968;2022-12-18T14:49:31;14.70;77.10
28071;DHT22;15383;48.408;9.968;2022-12-18T14:51:58;14.60;77.10
28071;DHT22;15383;48.408;9.968;2022-12-18T14:54:25;14.70;77.20
28071;DHT22;15383;48.408;9.968;2022-12-18T14:57:03;14.70;77.20
28071;DHT22;15383;48.408;9.968;2022-12-18T14:59:30;14.70;77.20
28071;DHT22;15383;48.408;9.968;2022-12-18T15:04:38;14.70;77.30
28071;DHT22;15383;48.408;9.968;2022-12-18T15:07:16;14.70;77.30
28071;DHT22;15383;48.408;9.968;2022-12-18T15:09:44;14.80;77.30
28071;DHT22;15383;48.408;9.968;2022-12-18T15:15:01;14.80;77.50
28071;DHT22;15383;48.408;9.968;2022-12-18T15:17:27;14.80;77.50
28071;DHT22;15383;48.408;9.968;2022-12-18T15:20:09;14.80;77.50
28071;DHT22;15383;48.408;9.968;2022-12-18T15:22:36;14.80;77.50
28071;DHT22;15383;48.408;9.968;2022-12-18T15:25:03;14.80;77.60
28071;DHT22;15383;48.408;9.968;2022-12-18T15:27:47;14.80;77.70
28071;DHT22;15383;48.408;9.968;2022-12-18T15:32:41;14.80;77.90
28071;DHT22;15383;48.408;9.968;2022-12-18T15:35:23;14.80;78.00
28071;DHT22;15383;48.408;9.968;2022-12-18T15:37:51;14.80;78.10
28071;DHT22;15383;48.408;9.968;2022-12-18T15:40:19;14.80;78.10
28071;DHT22;15383;48.408;9.968;2022-12-18T15:42:46;14.80;78.10
28071;DHT22;15383;48.408;9.968;2022-12-18T15:45:30;14.80;78.20
28071;DHT22;15383;48.408;9.968;2022-12-18T15:47:56;14.80;78.20
28071;DHT22;15383;48.408;9.968;2022-12-18T15:50:22;14.80;78.20
28071;DHT22;15383;48.408;9.968;2022-12-18T15:52:49;14.80;78.30
28071;DHT22;15383;48.408;9.968;2022-12-18T15:55:19;14.80;78.50
28071;DHT22;15383;48.408;9.968;2022-12-18T15:58:08;15.00;78.60
28071;DHT22;15383;48.408;9.968;2022-12-18T16:00:35;15.10;79.50
28071;DHT22;15383;48.408;9.968;2022-12-18T16:03:05;15.20;79.30
28071;DHT22;15383;48.408;9.968;2022-12-18T16:05:43;15.30;79.80
28071;DHT22;15383;48.408;9.968;2022-12-18T16:08:08;15.30;79.70
28071;DHT22;15383;48.408;9.968;2022-12-18T16:10:34;15.40;80.00
28071;DHT22;15383;48.408;9.968;2022-12-18T16:13:00;15.40;79.50
28071;DHT22;15383;48.408;9.968;2022-12-18T16:15:26;15.50;79.40
28071;DHT22;15383;48.408;9.968;2022-12-18T16:17:51;15.50;79.50
28071;DHT22;15383;48.408;9.968;2022-12-18T16:20:21;15.50;79.90
28071;DHT22;15383;48.408;9.968;2022-12-18T16:22:47;15.50;80.00
28071;DHT22;15383;48.408;9.968;2022-12-18T16:25:22;15.60;80.00
28071;DHT22;15383;48.408;9.968;2022-12-18T16:27:49;15.50;79.90
28071;DHT22;15383;48.408;9.968;2022-12-18T16:30:18;15.60;80.00
28071;DHT22;15383;48.408;9.968;2022-12-18T16:32:44;15.60;80.00
28071;DHT22;15383;48.408;9.968;2022-12-18T16:35:11;15.60;79.90
28071;DHT22;15383;48.408;9.968;2022-12-18T16:37:37;15.60;80.00
28071;DHT22;15383;48.408;9.968;2022-12-18T16:40:03;15.50;80.00
28071;DHT22;15383;48.408;9.968;2022-12-18T16:42:28;15.60;80.80
28071;DHT22;15383;48.408;9.968;2022-12-18T16:44:54;15.50;80.00
28071;DHT22;15383;48.408;9.968;2022-12-18T16:47:19;15.50;80.00
28071;DHT22;15383;48.408;9.968;2022-12-18T16:49:45;15.50;80.00
28071;DHT22;15383;48.408;9.968;2022-12-18T16:52:11;15.50;80.00
28071;DHT22;15383;48.408;9.968;2022-12-18T16:54:36;15.50;80.10
28071;DHT22;15383;48.408;9.968;2022-12-18T16:57:03;15.50;80.20
28071;DHT22;15383;48.408;9.968;2022-12-18T16:59:29;15.50;80.30
28071;DHT22;15383;48.408;9.968;2022-12-18T17:01:55;15.60;80.50
28071;DHT22;15383;48.408;9.968;2022-12-18T17:04:22;15.50;80.70
28071;DHT22;15383;48.408;9.968;2022-12-18T17:06:47;15.50;80.80
28071;DHT22;15383;48.408;9.968;2022-12-18T17:09:18;15.50;80.70
28071;DHT22;15383;48.408;9.968;2022-12-18T17:11:47;15.50;80.70
28071;DHT22;15383;48.408;9.968;2022-12-18T17:14:18;15.50;80.70
28071;DHT22;15383;48.408;9.968;2022-12-18T17:16:45;15.50;80.90
28071;DHT22;15383;48.408;9.968;2022-12-18T17:19:11;15.50;80.80
28071;DHT22;15383;48.408;9.968;2022-12-18T17:21:36;15.50;80.70
28071;DHT22;15383;48.408;9.968;2022-12-18T17:24:02;15.50;80.70
28071;DHT22;15383;48.408;9.968;2022-12-18T17:26:29;15.50;81.50
28071;DHT22;15383;48.408;9.968;2022-12-18T17:28:58;15.50;81.10
28071;DHT22;15383;48.408;9.968;2022-12-18T17:31:26;15.60;81.50
28071;DHT22;15383;48.408;9.968;2022-12-18T17:33:53;15.50;81.50
28071;DHT22;15383;48.408;9.968;2022-12-18T17:36:19;15.50;81.40
28071;DHT22;15383;48.408;9.968;2022-12-18T17:38:54;15.60;81.50
28071;DHT22;15383;48.408;9.968;2022-12-18T17:41:19;15.50;81.40
28071;DHT22;15383;48.408;9.968;2022-12-18T17:44:00;15.50;81.20
28071;DHT22;15383;48.408;9.968;2022-12-18T17:46:27;15.60;81.10
28071;DHT22;15383;48.408;9.968;2022-12-18T17:49:00;15.60;81.00
28071;DHT22;15383;48.408;9.968;2022-12-18T17:51:27;15.60;80.90
28071;DHT22;15383;48.408;9.968;2022-12-18T17:53:53;15.70;81.60
28071;DHT22;15383;48.408;9.968;2022-12-18T17:56:21;15.70;80.80
28071;DHT22;15383;48.408;9.968;2022-12-18T17:58:47;15.70;80.80
28071;DHT22;15383;48.408;9.968;2022-12-18T18:01:16;15.70;80.80
28071;DHT22;15383;48.408;9.968;2022-12-18T18:03:43;15.70;80.80
28071;DHT22;15383;48.408;9.968;2022-12-18T18:06:08;15.70;80.70
28071;DHT22;15383;48.408;9.968;2022-12-18T18:08:34;15.70;80.80
28071;DHT22;15383;48.408;9.968;2022-12-18T18:11:10;15.70;80.90
28071;DHT22;15383;48.408;9.968;2022-12-18T18:13:54;15.60;81.00
28071;DHT22;15383;48.408;9.968;2022-12-18T18:16:38;15.60;81.20
28071;DHT22;15383;48.408;9.968;2022-12-18T18:19:06;15.60;81.30
28071;DHT22;15383;48.408;9.968;2022-12-18T18:21:33;15.60;81.30
28071;DHT22;15383;48.408;9.968;2022-12-18T18:24:02;15.60;81.40
28071;DHT22;15383;48.408;9.968;2022-12-18T18:26:30;15.50;81.40
28071;DHT22;15383;48.408;9.968;2022-12-18T18:29:00;15.50;81.50
28071;DHT22;15383;48.408;9.968;2022-12-18T18:31:27;15.60;82.40
28071;DHT22;15383;48.408;9.968;2022-12-18T18:33:53;15.60;82.20
28071;DHT22;15383;48.408;9.968;2022-12-18T18:36:20;15.60;82.40
28071;DHT22;15383;48.408;9.968;2022-12-18T18:38:45;15.60;83.00
28071;DHT22;15383;48.408;9.968;2022-12-18T18:41:11;15.60;82.40
28071;DHT22;15383;48.408;9.968;2022-12-18T18:43:37;15.50;82.10
28071;DHT22;15383;48.408;9.968;2022-12-18T18:46:04;15.40;82.20
28071;DHT22;15383;48.408;9.968;2022-12-18T18:48:32;15.40;82.30
28071;DHT22;15383;48.408;9.968;2022-12-18T18:51:00;15.30;82.40
28071;DHT22;15383;48.408;9.968;2022-12-18T18:53:26;15.30;82.50
28071;DHT22;15383;48.408;9.968;2022-12-18T18:55:53;15.30;82.50
28071;DHT22;15383;48.408;9.968;2022-12-18T18:58:21;15.20;82.60
28071;DHT22;15383;48.408;9.968;2022-12-18T19:00:54;15.10;82.50
28071;DHT22;15383;48.408;9.968;2022-12-18T19:03:19;15.10;82.60
28071;DHT22;15383;48.408;9.968;2022-12-18T19:05:50;15.10;82.60
28071;DHT22;15383;48.408;9.968;2022-12-18T19:08:16;15.10;82.60
28071;DHT22;15383;48.408;9.968;2022-12-18T19:10:41;15.10;82.60
28071;DHT22;15383;48.408;9.968;2022-12-18T19:13:10;15.10;82.60
28071;DHT22;15383;48.408;9.968;2022-12-18T19:15:47;15.10;82.60
28071;DHT22;15383;48.408;9.968;2022-12-18T19:18:12;15.00;82.60
28071;DHT22;15383;48.408;9.968;2022-12-18T19:20:38;15.10;81.60
28071;DHT22;15383;48.408;9.968;2022-12-18T19:23:04;14.80;76.90
28071;DHT22;15383;48.408;9.968;2022-12-18T19:25:30;14.70;76.00
28071;DHT22;15383;48.408;9.968;2022-12-18T19:27:58;14.80;76.50
28071;DHT22;15383;48.408;9.968;2022-12-18T19:30:23;14.90;77.10
28071;DHT22;15383;48.408;9.968;2022-12-18T19:32:49;14.80;74.80
28071;DHT22;15383;48.408;9.968;2022-12-18T19:35:14;14.60;71.90
28071;DHT22;15383;48.408;9.968;2022-12-18T19:37:40;14.50;71.90
28071;DHT22;15383;48.408;9.968;2022-12-18T19:40:06;14.60;72.90
28071;DHT22;15383;48.408;9.968;2022-12-18T19:42:32;14.70;73.70
28071;DHT22;15383;48.408;9.968;2022-12-18T19:44:57;14.70;74.40
28071;DHT22;15383;48.408;9.968;2022-12-18T19:47:23;14.70;75.00
28071;DHT22;15383;48.408;9.968;2022-12-18T19:49:48;14.70;75.70
28071;DHT22;15383;48.408;9.968;2022-12-18T19:52:15;14.70;76.20
28071;DHT22;15383;48.408;9.968;2022-12-18T19:54:41;14.70;76.70
28071;DHT22;15383;48.408;9.968;2022-12-18T19:57:06;14.70;77.10
28071;DHT22;15383;48.408;9.968;2022-12-18T19:59:36;14.70;77.60
28071;DHT22;15383;48.408;9.968;2022-12-18T20:02:01;14.70;77.90
28071;DHT22;15383;48.408;9.968;2022-12-18T20:04:27;14.70;78.20
28071;DHT22;15383;48.408;9.968;2022-12-18T20:06:53;14.70;78.50
28071;DHT22;15383;48.408;9.968;2022-12-18T20:09:19;14.70;78.70
28071;DHT22;15383;48.408;9.968;2022-12-18T20:11:45;14.60;78.80
28071;DHT22;15383;48.408;9.968;2022-12-18T20:14:12;14.60;79.80
28071;DHT22;15383;48.408;9.968;2022-12-18T20:16:39;14.70;79.20
28071;DHT22;15383;48.408;9.968;2022-12-18T20:19:05;14.60;79.30
28071;DHT22;15383;48.408;9.968;2022-12-18T20:21:31;14.60;79.40
28071;DHT22;15383;48.408;9.968;2022-12-18T20:23:57;14.60;79.50
28071;DHT22;15383;48.408;9.968;2022-12-18T20:26:24;14.60;79.70
28071;DHT22;15383;48.408;9.968;2022-12-18T20:28:51;14.60;79.80
28071;DHT22;15383;48.408;9.968;2022-12-18T20:31:17;14.60;80.60
28071;DHT22;15383;48.408;9.968;2022-12-18T20:33:42;14.60;80.00
28071;DHT22;15383;48.408;9.968;2022-12-18T20:36:12;14.60;80.00
28071;DHT22;15383;48.408;9.968;2022-12-18T20:38:38;14.60;80.90
28071;DHT22;15383;48.408;9.968;2022-12-18T20:41:08;14.60;80.20
28071;DHT22;15383;48.408;9.968;2022-12-18T20:43:35;14.60;80.30
28071;DHT22;15383;48.408;9.968;2022-12-18T20:46:06;14.60;80.20
28071;DHT22;15383;48.408;9.968;2022-12-18T20:48:32;14.60;80.30
28071;DHT22;15383;48.408;9.968;2022-12-18T20:51:03;14.60;80.40
28071;DHT22;15383;48.408;9.968;2022-12-18T20:53:30;14.60;80.50
28071;DHT22;15383;48.408;9.968;2022-12-18T20:55:56;14.60;80.50
28071;DHT22;15383;48.408;9.968;2022-12-18T20:58:22;14.60;80.50
28071;DHT22;15383;48.408;9.968;2022-12-18T21:00:47;14.60;80.60
28071;DHT22;15383;48.408;9.968;2022-12-18T21:03:13;14.60;80.60
28071;DHT22;15383;48.408;9.968;2022-12-18T21:05:38;14.60;80.60
28071;DHT22;15383;48.408;9.968;2022-12-18T21:08:04;14.60;80.70
28071;DHT22;15383;48.408;9.968;2022-12-18T21:10:30;14.60;80.80
28071;DHT22;15383;48.408;9.968;2022-12-18T21:12:55;14.60;80.90
28071;DHT22;15383;48.408;9.968;2022-12-18T21:15:21;14.60;80.90
28071;DHT22;15383;48.408;9.968;2022-12-18T21:17:46;14.60;80.80
28071;DHT22;15383;48.408;9.968;2022-12-18T21:20:13;14.60;80.80
28071;DHT22;15383;48.408;9.968;2022-12-18T21:22:39;14.60;80.80
28071;DHT22;15383;48.408;9.968;2022-12-18T21:25:05;14.60;80.80
28071;DHT22;15383;48.408;9.968;2022-12-18T21:27:30;14.60;80.90
28071;DHT22;15383;48.408;9.968;2022-12-18T21:29:56;14.60;80.90
28071;DHT22;15383;48.408;9.968;2022-12-18T21:32:21;14.60;80.90
28071;DHT22;15383;48.408;9.968;2022-12-18T21:34:47;14.60;81.00
28071;DHT22;15383;48.408;9.968;2022-12-18T21:37:12;14.60;81.00
28071;DHT22;15383;48.408;9.968;2022-12-18T21:39:38;14.60;81.10
28071;DHT22;15383;48.408;9.968;2022-12-18T21:42:04;14.50;81.00
28071;DHT22;15383;48.408;9.968;2022-12-18T21:44:48;14.60;81.20
28071;DHT22;15383;48.408;9.968;2022-12-18T21:47:14;14.50;81.20
28071;DHT22;15383;48.408;9.968;2022-12-18T21:49:40;14.50;81.20
28071;DHT22;15383;48.408;9.968;2022-12-18T21:52:06;14.50;81.20
28071;DHT22;15383;48.408;9.968;2022-12-18T21:54:32;14.50;81.20
28071;DHT22;15383;48.408;9.968;2022-12-18T22:00:18;14.60;81.40
28071;DHT22;15383;48.408;9.968;2022-12-18T22:02:44;14.60;81.50
28071;DHT22;15383;48.408;9.968;2022-12-18T22:05:10;14.50;81.80
28071;DHT22;15383;48.408;9.968;2022-12-18T22:07:35;14.50;82.10
28071;DHT22;15383;48.408;9.968;2022-12-18T22:10:01;14.50;82.50
28071;DHT22;15383;48.408;9.968;2022-12-18T22:12:26;14.50;82.80
28071;DHT22;15383;48.408;9.968;2022-12-18T22:15:02;14.50;82.80
28071;DHT22;15383;48.408;9.968;2022-12-18T22:17:28;14.50;82.80
28071;DHT22;15383;48.408;9.968;2022-12-18T22:19:54;14.50;82.80
28071;DHT22;15383;48.408;9.968;2022-12-18T22:22:19;14.50;83.00
28071;DHT22;15383;48.408;9.968;2022-12-18T22:24:45;14.40;83.00
28071;DHT22;15383;48.408;9.968;2022-12-18T22:27:11;14.40;83.20
28071;DHT22;15383;48.408;9.968;2022-12-18T22:29:36;14.40;83.20
28071;DHT22;15383;48.408;9.968;2022-12-18T22:32:20;14.50;83.20
28071;DHT22;15383;48.408;9.968;2022-12-18T22:34:46;14.40;83.10
28071;DHT22;15383;48.408;9.968;2022-12-18T22:37:11;14.50;83.20
28071;DHT22;15383;48.408;9.968;2022-12-18T22:39:38;14.40;83.20
28071;DHT22;15383;48.408;9.968;2022-12-18T22:42:04;14.40;83.20
28071;DHT22;15383;48.408;9.968;2022-12-18T22:44:30;14.40;84.00
28071;DHT22;15383;48.408;9.968;2022-12-18T22:46:55;14.40;83.30
28071;DHT22;15383;48.408;9.968;2022-12-18T22:49:23;14.40;83.20
28071;DHT22;15383;48.408;9.968;2022-12-18T22:51:49;14.50;84.10
28071;DHT22;15383;48.408;9.968;2022-12-18T22:54:15;14.40;83.30
28071;DHT22;15383;48.408;9.968;2022-12-18T22:56:41;14.40;83.30
28071;DHT22;15383;48.408;9.968;2022-12-18T22:59:06;14.40;83.40
28071;DHT22;15383;48.408;9.968;2022-12-18T23:01:33;14.40;83.40
28071;DHT22;15383;48.408;9.968;2022-12-18T23:03:59;14.40;83.40
28071;DHT22;15383;48.408;9.968;2022-12-18T23:06:26;14.40;83.40
28071;DHT22;15383;48.408;9.968;2022-12-18T23:08:54;14.40;83.50
28071;DHT22;15383;48.408;9.968;2022-12-18T23:11:21;14.40;83.60
28071;DHT22;15383;48.408;9.968;2022-12-18T23:13:47;14.40;83.70
28071;DHT22;15383;48.408;9.968;2022-12-18T23:16:14;14.30;83.70
28071;DHT22;15383;48.408;9.968;2022-12-18T23:18:41;14.30;83.80
28071;DHT22;15383;48.408;9.968;2022-12-18T23:21:11;14.30;83.80
28071;DHT22;15383;48.408;9.968;2022-12-18T23:23:37;14.40;83.90
28071;DHT22;15383;48.408;9.968;2022-12-18T23:26:09;14.30;83.80
28071;DHT22;15383;48.408;9.968;2022-12-18T23:28:35;14.30;83.90
28071;DHT22;15383;48.408;9.968;2022-12-18T23:31:06;14.40;84.00
28071;DHT22;15383;48.408;9.968;2022-12-18T23:33:32;14.30;84.00
28071;DHT22;15383;48.408;9.968;2022-12-18T23:35:59;14.30;84.00
28071;DHT22;15383;48.408;9.968;2022-12-18T23:38:25;14.30;84.10
28071;DHT22;15383;48.408;9.968;2022-12-18T23:40:51;14.30;84.10
28071;DHT22;15383;48.408;9.968;2022-12-18T23:43:16;14.30;84.10
28071;DHT22;15383;48.408;9.968;2022-12-18T23:45:42;14.30;84.20
28071;DHT22;15383;48.408;9.968;2022-12-18T23:48:07;14.30;84.30
28071;DHT22;15383;48.408;9.968;2022-12-18T23:50:36;14.40;84.40
28071;DHT22;15383;48.408;9.968;2022-12-18T23:53:02;14.30;84.30
28071;DHT22;15383;48.408;9.968;2022-12-18T23:55:28;14.30;84.30
28071;DHT22;15383;48.408;9.968;2022-12-18T23:57:54;14.30;84.30
